createdAt,value
2023-09-27T00:01:39.725Z,10.40
2023-09-27T00:04:06.815Z,10.40
2023-09-27T00:06:36.941Z,10.40
2023-09-27T00:09:05.955Z,10.30
2023-09-27T00:11:35.164Z,10.40
2023-09-27T00:14:02.326Z,10.40
2023-09-27T00:16:32.159Z,10.40
2023-09-27T00:19:01.533Z,10.50
2023-09-27T00:21:28.566Z,10.50
2023-09-27T00:23:55.474Z,10.40
2023-09-27T00:26:22.656Z,10.40
2023-09-27T00:28:49.799Z,10.30
2023-09-27T00:31:20.056Z,10.30
2023-09-27T00:33:49.226Z,10.20
2023-09-27T00:36:18.437Z,10.10
2023-09-27T00:38:45.954Z,10.00
2023-09-27T00:41:15.485Z,10.00
2023-09-27T00:43:42.715Z,10.00
2023-09-27T00:46:15.342Z,10.00
2023-09-27T00:48:43.138Z,10.00
2023-09-27T00:51:10.410Z,10.00
2023-09-27T00:53:38.964Z,9.90
2023-09-27T00:56:07.404Z,9.90
2023-09-27T00:58:36.710Z,9.90
2023-09-27T01:01:03.616Z,9.90
2023-09-27T01:03:34.381Z,9.90
2023-09-27T01:06:04.105Z,9.90
2023-09-27T01:08:31.528Z,9.90
2023-09-27T01:10:58.892Z,10.00
2023-09-27T01:13:28.143Z,10.00
2023-09-27T01:15:57.209Z,10.00
2023-09-27T01:18:26.753Z,10.00
2023-09-27T01:20:55.837Z,10.00
2023-09-27T01:23:22.936Z,10.00
2023-09-27T01:26:00.083Z,9.90
2023-09-27T01:28:27.527Z,9.90
2023-09-27T01:30:54.526Z,9.90
2023-09-27T01:33:21.467Z,9.90
2023-09-27T01:35:50.880Z,9.90
2023-09-27T01:38:18.104Z,9.80
2023-09-27T01:40:46.202Z,9.80
2023-09-27T01:43:13.425Z,9.80
2023-09-27T01:45:40.939Z,9.80
2023-09-27T01:48:10.321Z,9.80
2023-09-27T01:50:39.186Z,9.80
2023-09-27T01:53:06.865Z,9.70
2023-09-27T01:55:37.260Z,9.70
2023-09-27T01:58:04.832Z,9.60
2023-09-27T02:00:32.288Z,9.60
2023-09-27T02:03:00.924Z,9.60
2023-09-27T02:05:29.949Z,9.50
2023-09-27T02:07:57.669Z,9.50
2023-09-27T02:10:25.400Z,9.50
2023-09-27T02:12:52.591Z,9.60
2023-09-27T02:15:19.737Z,9.60
2023-09-27T02:17:49.764Z,9.50
2023-09-27T02:20:21.951Z,9.50
2023-09-27T02:22:50.762Z,9.40
2023-09-27T02:25:17.965Z,9.40
2023-09-27T02:27:47.825Z,9.40
2023-09-27T02:30:15.697Z,9.40
2023-09-27T02:32:46.970Z,9.30
2023-09-27T02:35:15.737Z,9.40
2023-09-27T02:37:45.083Z,9.40
2023-09-27T02:40:15.771Z,9.40
2023-09-27T02:42:44.348Z,9.30
2023-09-27T02:45:13.946Z,9.40
2023-09-27T02:47:44.866Z,9.40
2023-09-27T02:50:13.418Z,9.40
2023-09-27T02:52:44.940Z,9.40
2023-09-27T02:55:13.390Z,9.40
2023-09-27T02:57:40.809Z,9.30
2023-09-27T03:00:08.180Z,9.30
2023-09-27T03:02:38.742Z,9.30
2023-09-27T03:05:08.445Z,9.30
2023-09-27T03:07:35.556Z,9.30
2023-09-27T03:10:11.705Z,9.30
2023-09-27T03:12:40.722Z,9.30
2023-09-27T03:15:13.473Z,9.30
2023-09-27T03:17:44.112Z,9.20
2023-09-27T03:20:19.242Z,9.20
2023-09-27T03:22:49.136Z,9.20
2023-09-27T03:25:20.530Z,9.20
2023-09-27T03:27:48.074Z,9.20
2023-09-27T03:30:16.061Z,9.20
2023-09-27T03:32:43.881Z,9.20
2023-09-27T03:35:10.934Z,9.10
2023-09-27T03:37:37.903Z,9.10
2023-09-27T03:40:14.552Z,9.00
2023-09-27T03:42:44.866Z,8.90
2023-09-27T03:45:19.651Z,8.80
2023-09-27T03:47:48.731Z,8.80
2023-09-27T03:50:19.354Z,8.70
2023-09-27T03:52:46.354Z,8.70
2023-09-27T03:55:13.642Z,8.70
2023-09-27T03:57:42.370Z,8.70
2023-09-27T04:00:15.536Z,8.70
2023-09-27T04:02:44.298Z,8.70
2023-09-27T04:05:12.093Z,8.70
2023-09-27T04:07:39.110Z,8.60
2023-09-27T04:10:09.688Z,8.60
2023-09-27T04:12:37.410Z,8.50
2023-09-27T04:15:09.776Z,8.40
2023-09-27T04:17:38.447Z,8.30
2023-09-27T04:20:20.295Z,8.30
2023-09-27T04:22:49.392Z,8.20
2023-09-27T04:25:17.359Z,8.20
2023-09-27T04:27:47.055Z,8.10
2023-09-27T04:30:15.421Z,8.10
2023-09-27T04:32:51.643Z,8.20
2023-09-27T04:35:22.479Z,8.10
2023-09-27T04:37:50.086Z,8.10
2023-09-27T04:40:17.893Z,8.20
2023-09-27T04:42:46.656Z,8.10
2023-09-27T04:45:14.832Z,8.10
2023-09-27T04:47:46.256Z,8.10
2023-09-27T04:50:14.212Z,8.10
2023-09-27T04:52:42.001Z,8.20
2023-09-27T04:55:11.966Z,8.20
2023-09-27T04:57:39.030Z,8.30
2023-09-27T05:00:12.550Z,8.40
2023-09-27T05:02:42.395Z,8.40
2023-09-27T05:05:11.794Z,8.30
2023-09-27T05:07:41.273Z,8.30
2023-09-27T05:10:09.068Z,8.20
2023-09-27T05:12:38.059Z,8.20
2023-09-27T05:15:05.564Z,8.10
2023-09-27T05:17:32.824Z,8.10
2023-09-27T05:20:12.965Z,8.10
2023-09-27T05:22:44.460Z,8.20
2023-09-27T05:25:12.286Z,8.20
2023-09-27T05:27:39.943Z,8.20
2023-09-27T05:30:12.575Z,8.30
2023-09-27T05:32:40.171Z,8.40
2023-09-27T05:35:09.561Z,8.40
2023-09-27T05:37:38.956Z,8.50
2023-09-27T05:40:08.714Z,8.50
2023-09-27T05:42:36.687Z,8.50
2023-09-27T05:45:07.109Z,8.50
2023-09-27T05:47:34.675Z,8.50
2023-09-27T05:50:05.158Z,8.50
2023-09-27T05:52:34.346Z,8.50
2023-09-27T05:55:03.020Z,8.50
2023-09-27T05:57:36.929Z,8.60
2023-09-27T06:00:15.884Z,8.70
2023-09-27T06:02:44.654Z,8.70
2023-09-27T06:05:12.805Z,8.70
2023-09-27T06:07:39.759Z,8.80
2023-09-27T06:10:10.183Z,8.90
2023-09-27T06:12:37.187Z,8.90
2023-09-27T06:15:04.999Z,9.10
2023-09-27T06:17:34.442Z,9.20
2023-09-27T06:20:06.692Z,9.30
2023-09-27T06:22:36.413Z,9.40
2023-09-27T06:25:03.327Z,9.60
2023-09-27T06:27:30.304Z,9.80
2023-09-27T06:29:57.286Z,9.90
2023-09-27T06:32:24.445Z,10.10
2023-09-27T06:34:53.840Z,10.20
2023-09-27T06:37:20.998Z,10.30
2023-09-27T06:39:47.875Z,10.40
2023-09-27T06:42:15.451Z,10.40
2023-09-27T06:44:42.620Z,10.50
2023-09-27T06:47:11.961Z,10.50
2023-09-27T06:49:38.973Z,10.60
2023-09-27T06:52:06.595Z,10.60
2023-09-27T06:54:38.997Z,10.60
2023-09-27T06:57:06.008Z,10.60
2023-09-27T06:59:35.642Z,10.60
2023-09-27T07:02:05.171Z,10.60
2023-09-27T07:04:37.776Z,10.60
2023-09-27T07:07:04.861Z,10.60
2023-09-27T07:09:34.604Z,10.60
2023-09-27T07:12:01.831Z,10.70
2023-09-27T07:14:29.227Z,10.80
2023-09-27T07:17:01.482Z,11.00
2023-09-27T07:19:32.351Z,11.10
2023-09-27T07:22:00.708Z,11.20
2023-09-27T07:24:31.429Z,11.30
2023-09-27T07:27:00.528Z,11.40
2023-09-27T07:29:28.451Z,11.50
2023-09-27T07:31:55.771Z,11.60
2023-09-27T07:34:24.997Z,11.80
2023-09-27T07:36:55.240Z,12.00
2023-09-27T07:39:23.837Z,12.20
2023-09-27T07:41:54.050Z,12.40
2023-09-27T07:44:22.389Z,12.50
2023-09-27T07:46:49.999Z,12.60
2023-09-27T07:49:17.036Z,12.70
2023-09-27T07:51:43.931Z,12.80
2023-09-27T07:54:11.109Z,12.90
2023-09-27T07:56:41.406Z,13.10
2023-09-27T07:59:08.861Z,13.20
2023-09-27T08:01:37.262Z,13.30
2023-09-27T08:04:11.131Z,13.50
2023-09-27T08:06:39.819Z,13.60
2023-09-27T08:09:17.631Z,13.60
2023-09-27T08:11:51.857Z,13.80
2023-09-27T08:14:21.007Z,13.90
2023-09-27T08:16:48.186Z,14.00
2023-09-27T08:19:17.643Z,14.20
2023-09-27T08:21:44.506Z,14.30
2023-09-27T08:24:11.596Z,14.30
2023-09-27T08:26:41.003Z,14.40
2023-09-27T08:29:09.033Z,14.50
2023-09-27T08:31:39.215Z,14.60
2023-09-27T08:34:08.533Z,14.70
2023-09-27T08:36:35.632Z,14.80
2023-09-27T08:39:05.645Z,15.00
2023-09-27T08:41:32.789Z,15.10
2023-09-27T08:43:59.788Z,15.30
2023-09-27T08:46:30.882Z,15.40
2023-09-27T08:48:59.125Z,15.50
2023-09-27T08:51:27.282Z,15.60
2023-09-27T08:53:54.204Z,15.70
2023-09-27T08:56:21.873Z,15.90
2023-09-27T08:58:50.130Z,15.90
2023-09-27T09:01:18.123Z,16.00
2023-09-27T09:03:47.530Z,16.10
2023-09-27T09:06:17.014Z,16.20
2023-09-27T09:08:47.749Z,16.30
2023-09-27T09:11:20.007Z,16.40
2023-09-27T09:14:06.446Z,16.60
2023-09-27T09:16:41.528Z,16.80
2023-09-27T09:19:42.990Z,16.80
2023-09-27T09:22:14.413Z,16.90
2023-09-27T09:24:43.426Z,17.00
2023-09-27T09:27:18.283Z,17.20
2023-09-27T09:29:54.191Z,17.20
2023-09-27T09:32:23.667Z,17.30
2023-09-27T09:34:57.796Z,17.40
2023-09-27T09:37:31.116Z,17.60
2023-09-27T09:40:16.389Z,17.70
2023-09-27T09:42:49.927Z,17.90
2023-09-27T09:45:17.103Z,18.10
2023-09-27T09:47:45.545Z,18.20
2023-09-27T09:50:19.853Z,18.30
2023-09-27T09:52:50.101Z,18.40
2023-09-27T09:55:42.346Z,18.40
2023-09-27T09:58:36.212Z,18.50
2023-09-27T10:01:04.671Z,18.70
2023-09-27T10:03:36.615Z,18.80
2023-09-27T10:06:09.845Z,18.90
2023-09-27T10:08:41.295Z,19.00
2023-09-27T10:11:13.646Z,19.20
2023-09-27T10:13:43.996Z,19.20
2023-09-27T10:16:11.546Z,19.40
2023-09-27T10:18:40.026Z,19.50
2023-09-27T10:21:10.929Z,19.70
2023-09-27T10:23:47.007Z,19.90
2023-09-27T10:26:30.236Z,20.00
2023-09-27T10:29:07.497Z,20.00
2023-09-27T10:32:01.736Z,20.20
2023-09-27T10:34:34.878Z,20.30
2023-09-27T10:37:18.032Z,20.50
2023-09-27T10:40:23.687Z,20.60
2023-09-27T10:42:50.884Z,20.80
2023-09-27T10:45:18.413Z,20.90
2023-09-27T10:47:50.868Z,21.00
2023-09-27T10:50:28.713Z,21.00
2023-09-27T10:52:56.471Z,21.10
2023-09-27T10:55:23.693Z,21.20
2023-09-27T10:57:51.495Z,21.30
2023-09-27T11:00:19.624Z,21.40
2023-09-27T11:02:46.706Z,21.50
2023-09-27T11:05:13.808Z,21.50
2023-09-27T11:07:48.034Z,21.60
2023-09-27T11:10:30.892Z,21.70
2023-09-27T11:13:11.872Z,21.90
2023-09-27T11:15:45.934Z,22.00
2023-09-27T11:18:13.334Z,22.00
2023-09-27T11:20:43.949Z,22.20
2023-09-27T11:23:11.245Z,22.30
2023-09-27T11:25:39.184Z,22.30
2023-09-27T11:28:06.469Z,22.30
2023-09-27T11:30:34.535Z,22.40
2023-09-27T11:33:06.564Z,22.60
2023-09-27T11:35:34.082Z,22.70
2023-09-27T11:38:16.093Z,22.70
2023-09-27T11:40:45.101Z,22.60
2023-09-27T11:43:13.619Z,22.70
2023-09-27T11:45:44.290Z,22.80
2023-09-27T11:48:13.666Z,22.80
2023-09-27T11:50:40.999Z,22.90
2023-09-27T11:53:10.745Z,23.00
2023-09-27T11:55:41.039Z,23.10
2023-09-27T11:58:09.600Z,23.10
2023-09-27T12:00:36.662Z,23.10
2023-09-27T12:03:05.927Z,23.20
2023-09-27T12:05:37.155Z,23.20
2023-09-27T12:08:08.228Z,23.30
2023-09-27T12:10:35.439Z,23.40
2023-09-27T12:13:02.632Z,23.60
2023-09-27T12:15:31.873Z,23.60
2023-09-27T12:18:01.415Z,23.60
2023-09-27T12:20:40.700Z,23.40
2023-09-27T12:23:10.328Z,23.30
2023-09-27T12:25:38.116Z,23.50
2023-09-27T12:28:05.968Z,23.60
2023-09-27T12:30:33.281Z,23.60
2023-09-27T12:33:00.688Z,23.60
2023-09-27T12:35:30.047Z,23.50
2023-09-27T12:38:00.701Z,23.70
2023-09-27T12:40:27.909Z,23.70
2023-09-27T12:42:57.060Z,23.60
2023-09-27T12:45:24.144Z,23.60
2023-09-27T12:47:51.029Z,23.70
2023-09-27T12:50:21.339Z,23.70
2023-09-27T12:55:15.698Z,23.80
2023-09-27T12:57:42.561Z,23.70
2023-09-27T13:00:13.926Z,23.70
2023-09-27T13:02:41.557Z,23.80
2023-09-27T13:05:11.334Z,23.70
2023-09-27T13:07:38.728Z,23.90
2023-09-27T13:10:06.355Z,24.10
2023-09-27T13:12:40.198Z,24.10
2023-09-27T13:15:09.850Z,24.20
2023-09-27T13:17:37.285Z,24.20
2023-09-27T13:20:08.954Z,24.10
2023-09-27T13:22:38.282Z,24.10
2023-09-27T13:25:07.814Z,24.20
2023-09-27T13:27:35.013Z,24.20
2023-09-27T13:30:02.331Z,24.20
2023-09-27T13:32:31.578Z,24.40
2023-09-27T13:35:00.897Z,24.60
2023-09-27T13:37:30.026Z,24.70
2023-09-27T13:40:00.563Z,24.80
2023-09-27T13:42:30.473Z,24.90
2023-09-27T13:44:57.515Z,24.80
2023-09-27T13:47:29.826Z,24.90
2023-09-27T13:49:59.184Z,24.90
2023-09-27T13:52:26.772Z,25.00
2023-09-27T13:54:53.874Z,25.00
2023-09-27T13:57:22.908Z,25.20
2023-09-27T13:59:50.016Z,25.20
2023-09-27T14:02:17.560Z,25.10
2023-09-27T14:04:44.726Z,25.10
2023-09-27T14:07:11.756Z,25.10
2023-09-27T14:09:38.633Z,25.00
2023-09-27T14:12:06.353Z,24.80
2023-09-27T14:14:35.761Z,24.70
2023-09-27T14:17:03.792Z,24.70
2023-09-27T14:19:36.843Z,24.70
2023-09-27T14:22:03.977Z,24.70
2023-09-27T14:24:32.556Z,24.70
2023-09-27T14:27:07.727Z,24.70
2023-09-27T14:29:38.001Z,24.60
2023-09-27T14:32:10.470Z,24.80
2023-09-27T14:37:08.291Z,24.50
2023-09-27T14:39:40.178Z,24.50
2023-09-27T14:42:10.967Z,24.50
2023-09-27T14:44:37.964Z,24.40
2023-09-27T14:47:05.606Z,24.30
2023-09-27T14:49:32.629Z,24.40
2023-09-27T14:52:01.844Z,24.30
2023-09-27T14:54:28.730Z,24.10
2023-09-27T14:56:57.876Z,24.00
2023-09-27T14:59:25.024Z,24.00
2023-09-27T15:01:54.347Z,23.90
2023-09-27T15:04:21.496Z,23.80
2023-09-27T15:06:48.463Z,23.80
2023-09-27T15:09:17.510Z,23.80
2023-09-27T15:11:46.571Z,23.80
2023-09-27T15:14:13.524Z,23.70
2023-09-27T15:16:40.545Z,23.70
2023-09-27T15:19:07.695Z,23.60
2023-09-27T15:21:37.682Z,23.60
2023-09-27T15:24:07.240Z,23.60
2023-09-27T15:26:34.836Z,23.60
2023-09-27T15:29:04.465Z,23.60
2023-09-27T15:31:31.802Z,23.60
2023-09-27T15:34:03.584Z,23.50
2023-09-27T15:36:30.599Z,23.40
2023-09-27T15:39:00.098Z,23.40
2023-09-27T15:41:31.038Z,23.40
2023-09-27T15:43:58.864Z,23.40
2023-09-27T15:46:26.675Z,23.30
2023-09-27T15:48:58.447Z,23.30
2023-09-27T15:51:28.161Z,23.30
2023-09-27T15:54:07.239Z,23.20
2023-09-27T15:56:42.984Z,23.30
2023-09-27T15:59:11.046Z,23.20
2023-09-27T16:01:40.584Z,23.20
2023-09-27T16:04:09.314Z,23.30
2023-09-27T16:06:40.393Z,23.20
2023-09-27T16:09:08.108Z,23.10
2023-09-27T16:11:35.069Z,23.00
2023-09-27T16:14:02.112Z,23.10
2023-09-27T16:16:29.416Z,23.10
2023-09-27T16:18:56.420Z,22.90
2023-09-27T16:21:24.807Z,22.80
2023-09-27T16:23:54.862Z,22.70
2023-09-27T16:26:22.846Z,22.50
2023-09-27T16:28:54.300Z,22.40
2023-09-27T16:31:22.083Z,22.30
2023-09-27T16:33:49.329Z,22.20
2023-09-27T16:36:18.086Z,22.10
2023-09-27T16:38:45.621Z,21.90
2023-09-27T16:41:12.567Z,21.70
2023-09-27T16:43:41.056Z,21.50
2023-09-27T16:46:10.232Z,21.50
2023-09-27T16:48:39.550Z,21.30
2023-09-27T16:51:07.242Z,21.10
2023-09-27T16:53:39.404Z,21.00
2023-09-27T16:56:06.279Z,21.00
2023-09-27T16:58:33.559Z,20.80
2023-09-27T17:01:02.448Z,20.60
2023-09-27T17:03:33.258Z,20.40
2023-09-27T17:06:00.452Z,20.20
2023-09-27T17:08:27.619Z,20.00
2023-09-27T17:10:54.993Z,19.90
2023-09-27T17:13:25.612Z,19.70
2023-09-27T17:15:55.277Z,19.50
2023-09-27T17:18:24.431Z,19.40
2023-09-27T17:20:53.991Z,19.30
2023-09-27T17:23:20.885Z,19.20
2023-09-27T17:25:47.784Z,19.10
2023-09-27T17:28:14.804Z,19.00
2023-09-27T17:30:41.900Z,18.80
2023-09-27T17:33:09.035Z,18.80
2023-09-27T17:35:35.893Z,18.80
2023-09-27T17:38:07.821Z,18.80
2023-09-27T17:40:34.938Z,18.70
2023-09-27T17:43:01.824Z,18.50
2023-09-27T17:45:28.863Z,18.40
2023-09-27T17:47:58.179Z,18.40
2023-09-27T17:50:29.892Z,18.30
2023-09-27T17:52:57.060Z,18.20
2023-09-27T17:55:24.313Z,18.10
2023-09-27T17:57:51.182Z,18.00
2023-09-27T18:00:18.886Z,17.90
2023-09-27T18:02:48.733Z,17.80
2023-09-27T18:05:16.126Z,17.70
2023-09-27T18:07:43.055Z,17.60
2023-09-27T18:10:12.524Z,17.60
2023-09-27T18:12:39.410Z,17.50
2023-09-27T18:15:25.254Z,17.50
2023-09-27T18:17:54.987Z,17.40
2023-09-27T18:20:24.500Z,17.30
2023-09-27T18:22:53.701Z,17.10
2023-09-27T18:25:20.656Z,17.00
2023-09-27T18:27:49.818Z,17.00
2023-09-27T18:30:19.258Z,17.00
2023-09-27T18:32:48.554Z,17.00
2023-09-27T18:35:17.744Z,16.90
2023-09-27T18:37:44.851Z,16.90
2023-09-27T18:40:13.118Z,16.80
2023-09-27T18:42:42.765Z,16.80
2023-09-27T18:45:10.641Z,16.60
2023-09-27T18:47:37.923Z,16.60
2023-09-27T18:50:07.920Z,16.50
2023-09-27T18:52:35.494Z,16.30
2023-09-27T18:55:02.853Z,16.30
2023-09-27T18:57:29.843Z,16.20
2023-09-27T18:59:58.967Z,16.10
2023-09-27T19:02:26.079Z,16.10
2023-09-27T19:04:55.828Z,16.00
2023-09-27T19:07:23.580Z,15.90
2023-09-27T19:09:52.772Z,15.80
2023-09-27T19:12:19.766Z,15.70
2023-09-27T19:14:46.778Z,15.70
2023-09-27T19:17:13.838Z,15.70
2023-09-27T19:19:44.978Z,15.70
2023-09-27T19:22:12.086Z,15.60
2023-09-27T19:24:39.424Z,15.50
2023-09-27T19:27:06.384Z,15.60
2023-09-27T19:29:35.679Z,15.60
2023-09-27T19:32:07.351Z,15.50
2023-09-27T19:34:39.460Z,15.50
2023-09-27T19:37:09.556Z,15.40
2023-09-27T19:39:36.829Z,15.40
2023-09-27T19:42:06.040Z,15.30
2023-09-27T19:44:38.022Z,15.20
2023-09-27T19:47:09.135Z,15.10
2023-09-27T19:49:36.085Z,15.00
2023-09-27T19:52:03.489Z,14.90
2023-09-27T19:54:30.360Z,14.90
2023-09-27T19:57:00.112Z,14.90
2023-09-27T19:59:27.271Z,14.80
2023-09-27T20:02:00.309Z,14.80
2023-09-27T20:04:29.694Z,14.60
2023-09-27T20:06:56.860Z,14.60
2023-09-27T20:09:23.766Z,14.50
2023-09-27T20:11:52.787Z,14.40
2023-09-27T20:14:21.917Z,14.40
2023-09-27T20:16:51.666Z,14.40
2023-09-27T20:19:19.045Z,14.30
2023-09-27T20:21:45.827Z,14.30
2023-09-27T20:24:15.294Z,14.10
2023-09-27T20:26:42.307Z,14.00
2023-09-27T20:29:10.482Z,13.80
2023-09-27T20:31:37.618Z,13.80
2023-09-27T20:34:06.881Z,13.70
2023-09-27T20:36:36.163Z,13.60
2023-09-27T20:39:03.317Z,13.60
2023-09-27T20:41:30.244Z,13.50
2023-09-27T20:43:57.379Z,13.40
2023-09-27T20:46:24.343Z,13.40
2023-09-27T20:48:51.342Z,13.40
2023-09-27T20:51:18.340Z,13.30
2023-09-27T20:53:45.204Z,13.20
2023-09-27T20:56:12.262Z,13.20
2023-09-27T20:58:42.736Z,13.20
2023-09-27T21:01:39.904Z,13.10
2023-09-27T21:04:12.219Z,13.00
2023-09-27T21:06:41.301Z,13.00
2023-09-27T21:09:11.087Z,12.90
2023-09-27T21:11:38.213Z,12.90
2023-09-27T21:14:05.677Z,12.90
2023-09-27T21:16:34.405Z,12.80
2023-09-27T21:19:03.113Z,12.80
2023-09-27T21:21:33.278Z,12.70
2023-09-27T21:24:01.157Z,12.60
2023-09-27T21:26:30.229Z,12.60
2023-09-27T21:28:57.127Z,12.40
2023-09-27T21:31:28.872Z,12.40
2023-09-27T21:33:56.082Z,12.40
2023-09-27T21:36:25.550Z,12.30
2023-09-27T21:38:52.650Z,12.30
2023-09-27T21:41:22.235Z,12.20
2023-09-27T21:43:49.419Z,12.10
2023-09-27T21:46:20.167Z,12.10
2023-09-27T21:48:48.981Z,12.00
2023-09-27T21:51:16.752Z,12.00
2023-09-27T21:53:43.998Z,11.90
2023-09-27T21:56:14.424Z,11.90
2023-09-27T21:58:44.611Z,11.90
2023-09-27T22:01:17.109Z,11.90
2023-09-27T22:03:46.366Z,11.90
2023-09-27T22:06:14.384Z,11.90
2023-09-27T22:08:49.312Z,11.90
2023-09-27T22:11:20.159Z,11.90
2023-09-27T22:13:49.187Z,11.90
2023-09-27T22:16:16.373Z,11.80
2023-09-27T22:18:49.411Z,11.80
2023-09-27T22:21:38.613Z,11.90
2023-09-27T22:24:13.160Z,11.90
2023-09-27T22:26:52.508Z,11.90
2023-09-27T22:29:22.354Z,11.90
2023-09-27T22:31:51.413Z,11.80
2023-09-27T22:34:26.400Z,11.80
2023-09-27T22:36:53.912Z,11.70
2023-09-27T22:39:22.819Z,11.60
2023-09-27T22:41:53.301Z,11.60
2023-09-27T22:44:24.159Z,11.50
2023-09-27T22:46:54.034Z,11.50
2023-09-27T22:49:23.057Z,11.40
2023-09-27T22:51:50.336Z,11.40
2023-09-27T22:54:18.273Z,11.30
2023-09-27T22:56:49.017Z,11.30
2023-09-27T22:59:17.002Z,11.30
2023-09-27T23:01:47.138Z,11.30
2023-09-27T23:04:17.552Z,11.20
2023-09-27T23:06:46.340Z,11.20
2023-09-27T23:09:25.920Z,11.10
2023-09-27T23:12:17.664Z,11.10
2023-09-27T23:15:14.064Z,11.10
2023-09-27T23:17:59.646Z,11.00
2023-09-27T23:20:31.433Z,11.00
2023-09-27T23:23:00.914Z,11.00
2023-09-27T23:25:40.103Z,11.00
2023-09-27T23:28:17.198Z,11.00
2023-09-27T23:30:51.196Z,10.90
2023-09-27T23:33:20.929Z,11.00
2023-09-27T23:35:51.134Z,11.00
2023-09-27T23:38:40.034Z,10.90
2023-09-27T23:41:09.340Z,10.90
2023-09-27T23:43:41.693Z,10.90
2023-09-27T23:46:26.600Z,10.90
2023-09-27T23:48:56.263Z,10.90
2023-09-27T23:51:25.587Z,10.90
2023-09-27T23:54:00.088Z,10.90
2023-09-27T23:56:35.927Z,10.90
2023-09-27T23:59:09.548Z,10.90
